Time;durP1;ratioP1;P1;durP2;ratioP2;P2;SDS_P1;SDS_P2;PMS_P1;PMS_P2;Temp;Humidity;BMP_temperature;BMP_pressure;BME280_temperature;BME280_humidity;BME280_pressure;Samples;Min_cycle;Max_cycle;Signal;HPM_P1;HPM_P2
2022/11/26 00:01:18;;;;;;;9.02;7.63;;;;;;;-5.01;89.45;100926.78;5035038;28;20041;-62
2022/11/26 00:03:44;;;;;;;9.35;7.50;;;;;;;-4.74;89.83;100967.13;5036224;28;20372;-63
2022/11/26 00:06:32;;;;;;;9.68;8.38;;;;;;;-4.77;89.43;100947.59;5026408;28;20025;-64
2022/11/26 00:08:59;;;;;;;10.32;8.20;;;;;;;-4.79;89.01;100953.34;5042322;28;20028;-64
2022/11/26 00:11:24;;;;;;;10.32;8.40;;;;;;;-4.68;88.93;100960.78;5022224;28;20186;-64
2022/11/26 00:13:50;;;;;;;10.27;7.70;;;;;;;-4.98;88.90;100949.69;5023846;28;20053;-63
2022/11/26 00:16:16;;;;;;;10.43;8.60;;;;;;;-4.83;90.04;100954.81;5034858;28;20037;-64
2022/11/26 00:18:42;;;;;;;9.20;8.18;;;;;;;-4.98;88.94;100972.41;5036124;28;20360;-64
2022/11/26 00:21:22;;;;;;;10.50;8.02;;;;;;;-5.16;89.65;100961.16;5023148;28;20099;-63
2022/11/26 00:23:48;;;;;;;11.45;9.23;;;;;;;-4.91;90.51;100958.53;5023528;28;20076;-64
2022/11/26 00:26:18;;;;;;;11.55;8.18;;;;;;;-5.24;89.79;100938.84;5042604;28;20321;-62
2022/11/26 00:28:56;;;;;;;11.55;9.65;;;;;;;-4.95;90.24;100938.91;5043162;28;20029;-63
2022/11/26 00:31:22;;;;;;;14.35;10.30;;;;;;;-4.66;89.58;100957.47;5030599;28;20030;-63
2022/11/26 00:33:48;;;;;;;12.30;9.68;;;;;;;-4.78;89.25;100961.00;5023595;28;20030;-63
2022/11/26 00:36:28;;;;;;;13.43;9.32;;;;;;;-5.14;89.75;100935.25;5026194;28;20036;-63
2022/11/26 00:39:04;;;;;;;13.55;10.00;;;;;;;-5.11;89.59;100935.44;5023458;28;20068;-63
2022/11/26 00:41:34;;;;;;;14.45;10.88;;;;;;;-4.89;89.50;100974.63;5023209;28;20332;-64
2022/11/26 00:43:59;;;;;;;12.93;10.27;;;;;;;-4.75;90.64;100956.13;5040392;28;20306;-64
2022/11/26 00:46:25;;;;;;;14.00;9.93;;;;;;;-4.68;90.07;100960.78;5037132;28;20026;-64
2022/11/26 00:48:51;;;;;;;12.40;9.35;;;;;;;-4.92;88.89;100967.72;5034975;28;20034;-63
2022/11/26 00:51:22;;;;;;;10.20;8.32;;;;;;;-4.88;89.88;100963.75;5025813;28;20198;-62
2022/11/26 00:53:49;;;;;;;11.73;9.45;;;;;;;-4.78;89.40;100965.19;5024964;28;20022;-63
2022/11/26 00:56:17;;;;;;;12.20;9.15;;;;;;;-4.86;89.78;100957.13;5042253;28;20098;-63
2022/11/26 00:58:44;;;;;;;11.48;8.73;;;;;;;-4.57;88.52;100969.03;5028068;28;20396;-62
2022/11/26 01:01:17;;;;;;;13.18;8.98;;;;;;;-4.61;88.62;100983.91;5033165;28;20029;-64
2022/11/26 01:03:43;;;;;;;10.88;8.43;;;;;;;-4.82;89.26;100973.38;5036259;28;20145;-64
2022/11/26 01:06:33;;;;;;;12.13;9.00;;;;;;;-4.84;90.47;100975.81;5024385;28;20088;-64
2022/11/26 01:08:59;;;;;;;10.63;9.13;;;;;;;-4.87;90.56;100970.56;5042001;28;20093;-64
2022/11/26 01:11:25;;;;;;;10.98;9.07;;;;;;;-4.84;89.26;100975.81;5022948;28;20041;-64
2022/11/26 01:13:52;;;;;;;12.25;9.50;;;;;;;-4.82;89.60;100973.38;5038569;28;20113;-64
2022/11/26 01:16:22;;;;;;;10.77;8.90;;;;;;;-4.86;89.69;100947.03;5033064;28;20104;-63
2022/11/26 01:18:49;;;;;;;12.90;9.50;;;;;;;-4.92;90.15;100954.25;5029926;28;20217;-63
2022/11/26 01:21:16;;;;;;;11.45;8.98;;;;;;;-4.88;89.65;100973.88;5024580;28;20065;-63
2022/11/26 01:23:41;;;;;;;11.57;8.70;;;;;;;-4.70;88.83;100969.94;5030090;28;20042;-64
2022/11/26 01:26:17;;;;;;;9.95;8.05;;;;;;;-4.87;89.33;100963.00;5022923;28;20070;-63
2022/11/26 01:28:44;;;;;;;12.02;9.45;;;;;;;-4.82;89.93;100968.31;5037486;28;20316;-63
2022/11/26 01:31:15;;;;;;;12.80;9.10;;;;;;;-5.06;89.53;100974.47;5032315;28;20420;-63
2022/11/26 01:33:41;;;;;;;12.05;9.30;;;;;;;-5.05;89.47;100981.25;5030580;28;20096;-64
2022/11/26 01:36:21;;;;;;;12.75;9.88;;;;;;;-5.01;90.89;100984.00;5041020;28;20096;-63
2022/11/26 01:38:47;;;;;;;12.20;8.57;;;;;;;-5.09;90.45;100984.41;5022668;28;20034;-64
2022/11/26 01:41:25;;;;;;;12.30;9.95;;;;;;;-5.11;91.29;100968.25;5041059;28;20111;-64
2022/11/26 01:43:52;;;;;;;12.70;10.60;;;;;;;-4.95;90.82;100980.19;5026922;28;20030;-64
2022/11/26 01:46:21;;;;;;;12.80;10.38;;;;;;;-5.06;89.73;100974.47;5033574;28;20029;-64
2022/11/26 01:48:48;;;;;;;13.25;10.18;;;;;;;-4.99;90.73;100960.56;5043845;28;20220;-62
2022/11/26 01:51:24;;;;;;;13.15;10.00;;;;;;;-4.89;89.87;100970.47;5045705;28;20328;-63
2022/11/26 01:53:55;;;;;;;13.80;10.40;;;;;;;-5.21;91.12;100948.28;5027608;28;20033;-63
2022/11/26 01:56:26;;;;;;;13.18;9.98;;;;;;;-4.90;90.05;100980.50;5061135;28;20029;-64
2022/11/26 01:59:14;;;;;;;12.13;9.55;;;;;;;-4.99;90.70;100983.28;5029982;28;20105;-65
2022/11/26 02:01:40;;;;;;;11.45;9.32;;;;;;;-4.88;91.16;100981.44;5042255;28;20048;-63
2022/11/26 02:04:22;;;;;;;13.13;10.02;;;;;;;-5.04;90.78;100962.81;5036253;28;20213;-63
2022/11/26 02:06:49;;;;;;;9.93;8.48;;;;;;;-4.93;90.04;100980.28;5032515;28;20092;-64
2022/11/26 02:09:16;;;;;;;10.93;9.70;;;;;;;-4.95;90.65;100972.59;5044408;28;20113;-64
2022/11/26 02:11:41;;;;;;;10.07;7.72;;;;;;;-5.00;89.39;100968.03;5025752;28;20075;-63
2022/11/26 02:14:37;;;;;;;10.40;8.23;;;;;;;-4.92;89.35;100970.25;5034906;28;20037;-63
2022/11/26 02:17:08;;;;;;;10.95;8.50;;;;;;;-4.76;89.89;100973.75;5029419;28;20237;-64
2022/11/26 02:20:08;;;;;;;9.38;8.15;;;;;;;-4.77;89.85;100974.53;5038641;28;20033;-64
2022/11/26 02:23:03;;;;;;;11.55;8.32;;;;;;;-4.99;89.68;100982.44;5044083;28;20025;-63
2022/11/26 02:25:46;;;;;;;9.07;7.80;;;;;;;-4.94;90.40;100983.59;5040840;28;20348;-64
2022/11/26 02:28:40;;;;;;;7.82;6.60;;;;;;;-5.09;90.34;100994.50;5027210;28;20029;-64
2022/11/26 02:31:18;;;;;;;9.20;6.95;;;;;;;-5.09;90.15;100991.09;5027435;28;20337;-64
2022/11/26 02:33:56;;;;;;;7.30;6.65;;;;;;;-5.07;89.78;100987.88;5030155;28;20053;-64
2022/11/26 02:36:27;;;;;;;8.70;6.82;;;;;;;-5.13;90.78;100972.34;5041062;28;20190;-64
2022/11/26 02:38:53;;;;;;;7.63;6.50;;;;;;;-4.92;91.18;100987.09;5035770;28;20029;-64
2022/11/26 02:41:18;;;;;;;6.53;5.90;;;;;;;-5.01;89.89;100994.09;5025997;28;20065;-63
2022/11/26 02:43:45;;;;;;;7.07;5.97;;;;;;;-5.04;89.31;101003.22;5025249;28;20110;-63
2022/11/26 02:46:15;;;;;;;7.13;6.10;;;;;;;-5.02;89.65;101010.88;5034459;28;20036;-63
2022/11/26 02:48:46;;;;;;;6.70;5.85;;;;;;;-5.12;89.52;100980.78;5043701;28;20025;-64
2022/11/26 02:51:20;;;;;;;8.52;6.93;;;;;;;-5.20;90.59;100980.31;5044633;28;20031;-63
2022/11/26 02:53:49;;;;;;;7.65;5.28;;;;;;;-5.39;90.04;100970.69;5026802;28;20085;-63
2022/11/26 02:56:18;;;;;;;7.00;6.28;;;;;;;-5.33;90.84;100983.72;5040737;28;20029;-63
2022/11/26 02:58:44;;;;;;;7.50;6.28;;;;;;;-5.25;90.28;100991.78;5038245;28;20386;-64
2022/11/26 03:01:19;;;;;;;6.22;5.35;;;;;;;-5.35;91.46;101002.06;5035442;28;20029;-63
2022/11/26 03:03:49;;;;;;;6.78;5.90;;;;;;;-5.48;91.22;100993.69;5030514;28;20033;-63
2022/11/26 03:06:17;;;;;;;7.72;6.15;;;;;;;-5.30;91.95;101025.94;5042689;28;20068;-63
2022/11/26 03:08:44;;;;;;;6.43;5.78;;;;;;;-5.23;91.37;101021.41;5024507;28;20036;-63
2022/11/26 03:11:11;;;;;;;5.90;5.28;;;;;;;-5.09;90.73;101002.06;5025052;28;20033;-63
2022/11/26 03:13:37;;;;;;;6.57;5.57;;;;;;;-4.91;90.26;101021.69;5036069;28;20107;-63
2022/11/26 03:16:03;;;;;;;7.07;5.10;;;;;;;-5.04;89.81;101017.50;5044251;28;20033;-62
2022/11/26 03:18:29;;;;;;;5.30;4.80;;;;;;;-5.23;89.84;101023.03;5040754;28;20026;-64
2022/11/26 03:20:54;;;;;;;6.50;5.30;;;;;;;-5.16;90.17;101020.09;5024462;28;20033;-64
2022/11/26 03:23:20;;;;;;;7.18;5.43;;;;;;;-5.14;90.27;101020.25;5024902;28;20076;-64
2022/11/26 03:25:46;;;;;;;6.05;4.78;;;;;;;-5.23;89.62;101038.16;5025414;28;20025;-63
2022/11/26 03:28:11;;;;;;;5.00;4.43;;;;;;;-5.33;90.35;101039.25;5029670;28;20032;-64
2022/11/26 03:30:37;;;;;;;5.32;4.82;;;;;;;-5.25;91.25;101022.94;5039446;28;20025;-64
2022/11/26 03:33:02;;;;;;;5.32;4.82;;;;;;;-5.22;90.12;101043.31;5023789;28;20104;-63
2022/11/26 03:35:28;;;;;;;5.57;5.05;;;;;;;-5.12;90.95;101028.78;5024205;28;20026;-64
2022/11/26 03:37:54;;;;;;;6.85;4.60;;;;;;;-5.23;88.82;101026.44;5039354;28;20030;-63
2022/11/26 03:40:19;;;;;;;5.95;4.88;;;;;;;-5.29;89.57;101035.25;5033626;28;20037;-63
2022/11/26 03:42:45;;;;;;;4.32;3.90;;;;;;;-5.53;89.91;101032.88;5027600;28;20079;-63
2022/11/26 03:45:11;;;;;;;6.88;5.30;;;;;;;-5.24;90.79;101029.72;5042825;28;20033;-63
2022/11/26 03:47:37;;;;;;;6.07;5.45;;;;;;;-5.37;90.79;101048.25;5024195;28;20034;-63
2022/11/26 03:50:05;;;;;;;5.60;4.43;;;;;;;-5.59;91.23;101038.41;5023912;28;20321;-63
2022/11/26 03:52:30;;;;;;;5.80;5.05;;;;;;;-5.47;90.55;101037.47;5027738;28;20026;-64
2022/11/26 03:54:56;;;;;;;5.80;5.20;;;;;;;-5.27;91.25;101033.72;5030670;28;20025;-64
2022/11/26 03:57:22;;;;;;;5.90;5.25;;;;;;;-5.34;90.39;101037.50;5041817;28;20029;-62
2022/11/26 03:59:47;;;;;;;6.68;5.07;;;;;;;-5.42;89.74;101031.06;5025493;28;20217;-64
2022/11/26 04:02:13;;;;;;;5.57;4.93;;;;;;;-5.43;89.78;101036.88;5035365;28;20018;-63
2022/11/26 04:04:38;;;;;;;5.38;4.88;;;;;;;-5.52;89.65;101039.69;5033196;28;20135;-63
2022/11/26 04:07:04;;;;;;;5.47;4.63;;;;;;;-5.44;90.76;101052.84;5035547;28;20069;-63
2022/11/26 04:09:30;;;;;;;6.20;4.50;;;;;;;-5.48;90.19;101048.34;5023318;28;20221;-64
2022/11/26 04:11:55;;;;;;;4.60;4.20;;;;;;;-5.50;88.71;101052.41;5023120;28;20033;-63
2022/11/26 04:14:21;;;;;;;4.38;3.92;;;;;;;-5.76;89.26;101057.50;5042159;28;20304;-63
2022/11/26 04:16:46;;;;;;;4.30;3.80;;;;;;;-5.64;89.23;101049.88;5029411;28;20089;-63
2022/11/26 04:19:12;;;;;;;3.97;3.53;;;;;;;-5.56;87.59;101046.22;5032210;28;20083;-64
2022/11/26 04:21:37;;;;;;;3.83;3.33;;;;;;;-5.53;87.69;101053.06;5033393;28;20187;-64
2022/11/26 04:24:03;;;;;;;4.25;3.80;;;;;;;-5.47;86.47;101045.03;5023393;28;20037;-63
2022/11/26 04:26:29;;;;;;;3.88;3.10;;;;;;;-5.73;87.25;101042.56;5042739;28;20067;-65
2022/11/26 04:28:55;;;;;;;3.88;3.47;;;;;;;-5.61;86.85;101049.19;5027927;28;20356;-65
2022/11/26 04:31:20;;;;;;;3.30;2.97;;;;;;;-5.46;86.43;101051.84;5023122;28;20014;-63
2022/11/26 04:33:46;;;;;;;4.07;3.50;;;;;;;-5.52;87.57;101051.44;5028212;28;20340;-64
2022/11/26 04:36:12;;;;;;;4.38;3.67;;;;;;;-5.39;86.58;101067.50;5042362;28;20033;-65
2022/11/26 04:38:37;;;;;;;3.78;3.40;;;;;;;-5.33;87.46;101064.50;5023281;28;20038;-65
2022/11/26 04:41:03;;;;;;;3.95;3.63;;;;;;;-5.62;86.21;101070.16;5037447;28;20037;-64
2022/11/26 04:43:29;;;;;;;3.72;3.33;;;;;;;-5.50;87.12;101065.94;5031830;28;20025;-64
2022/11/26 04:45:54;;;;;;;3.63;3.30;;;;;;;-5.59;87.21;101071.22;5028361;28;20037;-63
2022/11/26 04:48:20;;;;;;;3.25;2.95;;;;;;;-5.66;86.75;101043.81;5040659;28;20107;-63
2022/11/26 04:50:47;;;;;;;3.95;3.55;;;;;;;-5.45;85.49;101068.75;5023283;28;20356;-64
2022/11/26 04:53:14;;;;;;;3.65;3.28;;;;;;;-5.74;86.35;101065.19;5026342;28;20022;-64
2022/11/26 04:55:39;;;;;;;5.65;3.78;;;;;;;-5.64;86.66;101056.53;5035425;28;20106;-64
2022/11/26 04:58:05;;;;;;;3.88;3.28;;;;;;;-5.72;86.84;101066.13;5035222;28;20022;-64
2022/11/26 05:00:31;;;;;;;4.28;3.70;;;;;;;-5.65;87.10;101055.69;5025942;28;20233;-63
2022/11/26 05:02:56;;;;;;;4.40;3.78;;;;;;;-5.42;85.29;101062.22;5032451;28;20061;-63
2022/11/26 05:05:22;;;;;;;4.28;3.88;;;;;;;-5.53;85.55;101069.88;5040864;28;20205;-62
2022/11/26 05:07:47;;;;;;;6.50;3.90;;;;;;;-5.61;86.17;101061.81;5029466;28;20026;-63
2022/11/26 05:10:13;;;;;;;4.47;4.07;;;;;;;-5.42;86.99;101058.84;5022699;28;20038;-63
2022/11/26 05:12:39;;;;;;;4.75;3.83;;;;;;;-5.49;86.92;101059.22;5025914;28;20079;-64
2022/11/26 05:15:05;;;;;;;3.95;3.53;;;;;;;-5.65;85.16;101042.19;5042446;28;20034;-64
2022/11/26 05:17:31;;;;;;;4.47;4.00;;;;;;;-5.52;87.00;101069.97;5030045;28;20040;-63
2022/11/26 05:19:57;;;;;;;5.50;4.20;;;;;;;-5.44;85.09;101073.88;5028282;28;20030;-62
2022/11/26 05:22:22;;;;;;;4.50;4.00;;;;;;;-5.39;84.96;101080.13;5034824;28;20033;-64
2022/11/26 05:24:48;;;;;;;5.95;4.70;;;;;;;-5.44;85.08;101083.97;5045195;28;20052;-63
2022/11/26 05:27:13;;;;;;;6.70;4.38;;;;;;;-5.58;86.64;101074.63;5046392;28;20201;-63
2022/11/26 05:29:39;;;;;;;4.78;4.28;;;;;;;-5.62;87.43;101085.28;5046615;28;20108;-63
2022/11/26 05:32:04;;;;;;;4.90;4.38;;;;;;;-5.38;85.62;101088.56;5030883;28;20029;-63
2022/11/26 05:34:30;;;;;;;5.30;4.70;;;;;;;-5.40;85.64;101070.78;5026487;28;20026;-62
2022/11/26 05:36:56;;;;;;;4.63;4.22;;;;;;;-5.35;87.02;101081.19;5032011;28;20063;-63
2022/11/26 05:39:21;;;;;;;6.20;5.03;;;;;;;-5.40;85.15;101085.94;5044928;28;20071;-62
2022/11/26 05:41:47;;;;;;;5.93;5.00;;;;;;;-5.46;85.63;101097.28;5026312;28;20053;-62
2022/11/26 05:44:13;;;;;;;5.75;4.80;;;;;;;-5.60;86.09;101088.78;5042503;28;20202;-63
2022/11/26 05:46:40;;;;;;;6.65;5.20;;;;;;;-5.45;86.40;101089.78;5034190;28;20386;-63
2022/11/26 05:49:06;;;;;;;5.18;4.63;;;;;;;-5.76;88.03;101095.34;5033038;28;20032;-63
2022/11/26 05:51:31;;;;;;;5.80;4.45;;;;;;;-5.82;87.15;101097.44;5043278;28;20025;-62
2022/11/26 05:53:57;;;;;;;6.80;4.93;;;;;;;-5.83;87.12;101104.91;5026145;28;20191;-62
2022/11/26 05:56:23;;;;;;;5.82;5.22;;;;;;;-5.58;87.29;101104.91;5025946;28;20317;-63
2022/11/26 05:58:48;;;;;;;7.07;5.45;;;;;;;-5.90;87.60;101117.13;5025819;28;20357;-64
2022/11/26 06:01:14;;;;;;;6.25;5.65;;;;;;;-5.73;87.61;101112.31;5029300;28;20037;-63
2022/11/26 06:03:40;;;;;;;6.90;5.47;;;;;;;-5.73;88.11;101118.25;5029257;28;20309;-63
2022/11/26 06:06:05;;;;;;;7.50;5.47;;;;;;;-5.60;86.72;101116.53;5045728;28;20052;-64
2022/11/26 06:08:32;;;;;;;5.72;5.03;;;;;;;-5.86;87.56;101102.19;5026820;28;20064;-63
2022/11/26 06:10:57;;;;;;;8.65;5.13;;;;;;;-5.88;87.70;101113.81;5025473;28;20325;-63
2022/11/26 06:13:23;;;;;;;6.60;5.78;;;;;;;-5.77;87.49;101117.91;5029205;28;20034;-64
2022/11/26 06:15:49;;;;;;;6.22;5.38;;;;;;;-5.78;88.72;101117.06;5040911;28;20348;-63
2022/11/26 06:18:15;;;;;;;7.47;6.68;;;;;;;-5.70;88.70;101111.66;5025552;28;20029;-63
2022/11/26 06:20:40;;;;;;;6.30;5.70;;;;;;;-5.89;87.51;101115.44;5025698;28;20018;-62
2022/11/26 06:23:06;;;;;;;6.72;6.13;;;;;;;-5.78;89.52;101122.09;5028847;28;20018;-64
2022/11/26 06:25:31;;;;;;;6.97;6.28;;;;;;;-5.89;87.91;101115.44;5025287;28;20022;-63
2022/11/26 06:27:57;;;;;;;6.72;6.05;;;;;;;-5.89;89.23;101117.97;5031053;28;20040;-63
2022/11/26 06:30:22;;;;;;;7.95;7.15;;;;;;;-5.81;89.04;101116.84;5043219;28;20237;-65
2022/11/26 06:32:48;;;;;;;9.45;7.40;;;;;;;-5.90;87.99;101134.78;5024914;28;20022;-63
2022/11/26 06:35:14;;;;;;;9.05;6.93;;;;;;;-5.86;89.12;101114.78;5024899;28;20064;-63
2022/11/26 06:37:40;;;;;;;7.65;6.85;;;;;;;-5.90;89.08;101123.78;5036657;28;20027;-64
2022/11/26 06:40:07;;;;;;;7.53;6.82;;;;;;;-5.97;89.53;101127.56;5038335;28;20045;-63
2022/11/26 06:42:33;;;;;;;7.70;6.97;;;;;;;-5.76;88.27;101128.16;5025071;28;20026;-64
2022/11/26 06:44:59;;;;;;;9.43;7.85;;;;;;;-5.80;90.31;101132.84;5024687;28;20053;-64
2022/11/26 06:47:25;;;;;;;8.35;7.20;;;;;;;-5.68;87.85;101133.69;5042330;28;20025;-63
2022/11/26 06:49:50;;;;;;;8.80;7.43;;;;;;;-5.83;89.84;101131.00;5031981;28;20064;-62
2022/11/26 06:52:16;;;;;;;10.07;7.82;;;;;;;-5.87;89.85;101130.69;5027008;28;20022;-64
2022/11/26 06:54:41;;;;;;;8.57;7.68;;;;;;;-5.91;88.75;101133.00;5024643;28;20032;-63
2022/11/26 06:57:07;;;;;;;12.07;8.95;;;;;;;-5.70;90.08;101130.22;5024837;28;20038;-64
2022/11/26 06:59:33;;;;;;;10.13;8.52;;;;;;;-5.73;89.86;101133.41;5043212;28;20029;-63
2022/11/26 07:01:58;;;;;;;8.75;7.85;;;;;;;-5.77;89.98;101135.59;5030607;28;20148;-64
2022/11/26 07:04:24;;;;;;;9.95;8.65;;;;;;;-5.68;89.90;101130.31;5033702;28;20091;-64
2022/11/26 07:06:49;;;;;;;9.38;8.02;;;;;;;-5.78;89.37;101149.00;5040092;28;20195;-64
2022/11/26 07:09:15;;;;;;;11.43;8.50;;;;;;;-5.81;88.00;101139.56;5006806;28;20049;-65
2022/11/26 07:11:42;;;;;;;9.10;7.70;;;;;;;-5.77;89.23;101117.91;5024647;28;20041;-66
2022/11/26 07:14:08;;;;;;;9.60;8.60;;;;;;;-5.58;88.11;101140.25;5039227;28;20100;-63
2022/11/26 07:16:34;;;;;;;9.65;8.50;;;;;;;-5.64;88.12;101138.19;5034156;28;20260;-64
2022/11/26 07:19:00;;;;;;;10.55;8.93;;;;;;;-5.54;87.62;101144.72;5029947;28;20029;-62
2022/11/26 07:21:27;;;;;;;10.25;8.55;;;;;;;-5.54;88.50;101159.88;5042516;28;20071;-63
2022/11/26 07:23:53;;;;;;;10.63;8.85;;;;;;;-5.80;88.92;101128.72;5044119;28;20028;-65
2022/11/26 07:26:20;;;;;;;10.02;9.02;;;;;;;-5.69;87.62;101113.41;5042874;28;20028;-64
2022/11/26 07:28:47;;;;;;;13.07;9.38;;;;;;;-5.35;87.61;101145.94;5043903;28;20185;-64
2022/11/26 07:31:16;;;;;;;11.02;9.60;;;;;;;-5.28;87.07;101128.78;5035180;28;20093;-63
2022/11/26 07:33:42;;;;;;;13.65;9.27;;;;;;;-5.07;86.56;101143.59;5040904;28;20022;-64
2022/11/26 07:36:13;;;;;;;14.70;9.93;;;;;;;-5.12;86.93;101145.78;5024156;28;20069;-63
2022/11/26 07:38:39;;;;;;;9.65;8.23;;;;;;;-5.38;86.54;101169.34;5024449;28;20034;-68
2022/11/26 07:41:07;;;;;;;10.40;8.57;;;;;;;-5.13;86.48;101148.22;5022744;28;20322;-67
2022/11/26 07:43:37;;;;;;;11.02;8.68;;;;;;;-5.25;86.75;101134.03;5033993;28;20048;-65
2022/11/26 07:46:05;;;;;;;9.40;8.40;;;;;;;-5.35;86.06;101156.06;5043533;28;20025;-64
2022/11/26 07:48:32;;;;;;;10.38;8.43;;;;;;;-5.21;87.10;101165.41;5042327;28;20457;-64
2022/11/26 07:50:59;;;;;;;9.65;8.65;;;;;;;-5.14;86.79;101157.47;5023544;28;20033;-66
2022/11/26 07:53:30;;;;;;;11.75;8.77;;;;;;;-5.20;86.64;101137.72;5038423;28;20292;-64
2022/11/26 07:55:55;;;;;;;12.48;7.65;;;;;;;-5.15;85.36;101165.81;5030709;28;20190;-64
2022/11/26 07:58:21;;;;;;;9.90;7.20;;;;;;;-5.32;86.33;101162.16;5026982;28;20033;-65
2022/11/26 08:00:47;;;;;;;8.45;7.18;;;;;;;-5.17;87.09;101158.91;5027051;28;20025;-64
2022/11/26 08:03:12;;;;;;;8.23;6.97;;;;;;;-5.37;85.11;101155.94;5043258;28;20221;-63
2022/11/26 08:05:42;;;;;;;8.27;5.95;;;;;;;-5.42;85.69;101158.13;5042240;28;20033;-65
2022/11/26 08:08:08;;;;;;;8.40;7.10;;;;;;;-5.21;87.00;101157.84;5042172;28;20249;-65
2022/11/26 08:10:34;;;;;;;7.72;6.43;;;;;;;-5.37;86.44;101164.38;5033385;28;20026;-65
2022/11/26 08:13:00;;;;;;;8.38;6.82;;;;;;;-5.26;87.03;101161.69;5023261;28;20053;-63
2022/11/26 08:15:25;;;;;;;10.32;7.80;;;;;;;-5.51;86.40;101156.69;5023203;28;20202;-66
2022/11/26 08:17:55;;;;;;;8.80;6.97;;;;;;;-5.57;88.27;101152.97;5023319;28;20050;-64
2022/11/26 08:20:22;;;;;;;8.25;7.20;;;;;;;-5.46;88.08;101156.19;5039520;28;20029;-65
2022/11/26 08:22:48;;;;;;;8.55;7.07;;;;;;;-5.47;87.25;101159.50;5040597;28;20027;-64
2022/11/26 08:25:14;;;;;;;9.35;8.35;;;;;;;-5.36;87.19;101172.81;5036139;28;20258;-64
2022/11/26 08:27:40;;;;;;;8.95;8.05;;;;;;;-5.29;87.90;101162.34;5025521;28;20037;-64
2022/11/26 08:30:06;;;;;;;11.63;8.02;;;;;;;-5.52;86.95;101163.34;5042980;28;20037;-63
2022/11/26 08:32:33;;;;;;;9.30;7.93;;;;;;;-5.34;87.30;101167.88;5025434;28;20076;-65
2022/11/26 08:34:59;;;;;;;8.57;7.53;;;;;;;-5.33;86.72;101155.38;5023178;28;20029;-64
2022/11/26 08:37:24;;;;;;;10.60;8.10;;;;;;;-5.30;85.80;101160.63;5027066;28;20037;-63
2022/11/26 08:39:50;;;;;;;8.90;7.70;;;;;;;-5.27;87.16;101175.97;5026822;28;20202;-63
2022/11/26 08:42:16;;;;;;;7.50;6.03;;;;;;;-5.44;86.80;101167.28;5042888;28;20033;-64
2022/11/26 08:44:42;;;;;;;9.00;7.20;;;;;;;-5.38;86.79;101167.66;5024012;28;20026;-65
2022/11/26 08:47:08;;;;;;;7.45;6.70;;;;;;;-5.50;86.61;101166.88;5033655;28;20314;-64
2022/11/26 08:49:34;;;;;;;9.70;7.30;;;;;;;-5.48;87.58;101167.84;5032471;28;20384;-63
2022/11/26 08:51:59;;;;;;;8.63;6.80;;;;;;;-5.63;86.00;101136.53;5038071;28;20034;-64
2022/11/26 08:54:25;;;;;;;8.57;6.15;;;;;;;-5.62;87.87;101168.56;5023020;28;20197;-65
2022/11/26 08:56:51;;;;;;;8.40;7.50;;;;;;;-5.54;88.04;101164.91;5024516;28;20026;-65
2022/11/26 08:59:18;;;;;;;9.57;7.40;;;;;;;-5.62;88.38;101169.41;5026972;28;20026;-65
2022/11/26 09:01:44;;;;;;;9.13;7.47;;;;;;;-5.67;87.69;101168.25;5037371;28;20029;-65
2022/11/26 09:04:10;;;;;;;8.85;7.57;;;;;;;-5.65;88.72;101160.78;5031765;28;20033;-64
2022/11/26 09:06:36;;;;;;;8.88;7.95;;;;;;;-5.49;87.81;101150.94;5044623;28;20026;-66
2022/11/26 09:09:12;;;;;;;11.80;7.30;;;;;;;-5.35;86.02;101171.19;5026759;28;20021;-66
2022/11/26 09:11:50;;;;;;;9.25;7.53;;;;;;;-5.58;87.95;101136.06;5060118;28;20038;-65
2022/11/26 09:14:18;;;;;;;10.40;7.97;;;;;;;-5.53;87.07;101166.63;5046280;28;20056;-63
2022/11/26 09:16:44;;;;;;;10.38;7.93;;;;;;;-5.49;86.79;101161.03;5035905;28;20053;-64
2022/11/26 09:19:11;;;;;;;10.95;8.90;;;;;;;-5.44;86.71;101173.97;5026408;28;20033;-64
2022/11/26 09:21:37;;;;;;;10.02;8.52;;;;;;;-5.39;88.16;101173.53;5029290;28;20380;-64
2022/11/26 09:24:03;;;;;;;10.43;8.82;;;;;;;-5.76;86.73;101118.06;5026487;28;20021;-64
2022/11/26 09:26:30;;;;;;;11.10;8.77;;;;;;;-5.56;86.93;101144.63;5026708;28;20364;-64
2022/11/26 09:28:56;;;;;;;12.43;8.15;;;;;;;-5.52;87.79;101178.50;5038144;28;20144;-64
2022/11/26 09:31:25;;;;;;;10.10;8.40;;;;;;;-5.53;87.50;101176.72;5038919;28;20301;-66
2022/11/26 09:33:51;;;;;;;12.27;8.77;;;;;;;-5.40;88.03;101173.38;5042332;28;20217;-64
2022/11/26 09:36:17;;;;;;;11.73;9.30;;;;;;;-5.25;88.08;101176.94;5045128;28;20025;-63
2022/11/26 09:38:44;;;;;;;13.15;8.55;;;;;;;-5.24;86.62;101187.94;5027715;28;20026;-62
2022/11/26 09:41:27;;;;;;;11.30;8.95;;;;;;;-5.25;85.86;101187.03;5026035;28;20029;-63
2022/11/26 09:44:12;;;;;;;10.68;9.20;;;;;;;-5.20;86.04;101185.72;5026090;28;20183;-63
2022/11/26 09:47:06;;;;;;;11.00;9.02;;;;;;;-5.32;86.26;101189.94;5025764;28;20036;-63
2022/11/26 09:49:38;;;;;;;11.70;9.57;;;;;;;-5.27;86.21;101167.53;5038246;28;20072;-63
2022/11/26 09:52:06;;;;;;;12.65;9.45;;;;;;;-5.30;86.70;101162.25;5041695;28;20029;-63
2022/11/26 09:54:32;;;;;;;12.18;9.63;;;;;;;-5.20;86.30;101182.31;5026027;28;20021;-64
2022/11/26 09:57:16;;;;;;;11.45;9.90;;;;;;;-5.45;86.49;101170.56;5025935;28;20048;-63
2022/11/26 09:59:45;;;;;;;14.00;10.43;;;;;;;-5.51;88.15;101157.53;5029534;28;20022;-64
2022/11/26 10:02:12;;;;;;;12.73;9.32;;;;;;;-5.53;87.57;101170.81;5039605;28;20091;-64
2022/11/26 10:04:39;;;;;;;13.20;9.32;;;;;;;-5.59;87.32;101181.38;5036150;28;20032;-63
2022/11/26 10:07:14;;;;;;;11.73;10.00;;;;;;;-5.40;87.58;101176.81;5030304;28;20025;-63
2022/11/26 10:09:39;;;;;;;11.10;9.70;;;;;;;-5.17;86.95;101181.63;5041314;28;20033;-64
2022/11/26 10:12:11;;;;;;;12.52;9.57;;;;;;;-5.51;86.56;101149.09;5045364;28;20026;-65
2022/11/26 10:14:54;;;;;;;12.43;9.70;;;;;;;-5.52;87.68;101148.22;5026835;28;20033;-63
2022/11/26 10:17:41;;;;;;;11.40;9.05;;;;;;;-5.33;86.55;101165.47;5040395;28;20026;-63
2022/11/26 10:21:05;;;;;;;12.57;9.60;;;;;;;-5.26;87.14;101170.16;5030916;28;20102;-64
2022/11/26 10:23:59;;;;;;;12.25;9.70;;;;;;;-5.31;87.24;101171.50;5062755;28;20033;-63
2022/11/26 10:26:32;;;;;;;13.93;10.15;;;;;;;-5.25;88.01;101174.41;5029754;28;20034;-63
2022/11/26 10:29:21;;;;;;;11.88;10.00;;;;;;;-5.24;87.88;101172.78;5054810;28;20063;-63
2022/11/26 10:31:49;;;;;;;12.48;8.90;;;;;;;-5.55;86.16;101148.88;5063361;28;20033;-64
2022/11/26 10:34:36;;;;;;;11.82;9.75;;;;;;;-5.74;88.90;101153.47;5062973;28;20045;-64
2022/11/26 10:37:02;;;;;;;12.68;9.25;;;;;;;-5.51;89.27;101161.72;5058722;28;20056;-65
2022/11/26 10:39:28;;;;;;;13.80;10.27;;;;;;;-5.35;88.88;101174.59;5044776;28;20364;-63
2022/11/26 10:41:53;;;;;;;11.93;9.05;;;;;;;-5.53;87.16;101176.72;5062927;28;20037;-62
2022/11/26 10:44:39;;;;;;;12.43;10.18;;;;;;;-5.43;87.34;101163.09;5062740;28;20029;-63
2022/11/26 10:47:29;;;;;;;11.10;9.10;;;;;;;-5.43;88.06;101153.00;5049782;28;20292;-63
2022/11/26 10:50:11;;;;;;;14.68;10.18;;;;;;;-5.45;88.56;101175.59;5054257;28;20244;-63
2022/11/26 10:52:37;;;;;;;;;;;;;;;-5.40;88.77;101179.34;5062887;28;20071;-63
2022/11/26 10:55:28;;;;;;;15.20;9.50;;;;;;;-5.65;89.54;101170.88;5037439;28;20310;-66
2022/11/26 10:58:04;;;;;;;11.90;9.43;;;;;;;-5.52;88.60;101178.50;5042181;28;20045;-63
2022/11/26 11:00:36;;;;;;;12.70;10.23;;;;;;;-5.59;88.28;101151.09;5025130;28;20029;-64
2022/11/26 11:03:05;;;;;;;12.50;9.77;;;;;;;-5.33;88.70;101180.63;5024414;28;20309;-62
2022/11/26 11:05:31;;;;;;;12.40;10.02;;;;;;;-5.38;88.06;101184.47;5040735;28;20113;-63
2022/11/26 11:07:57;;;;;;;10.98;8.95;;;;;;;-5.57;88.84;101190.81;5044486;28;20048;-63
2022/11/26 11:10:24;;;;;;;11.70;9.70;;;;;;;-5.66;89.37;101169.97;5040758;28;20309;-63
2022/11/26 11:13:09;;;;;;;11.40;8.75;;;;;;;-5.63;88.82;101190.41;5037379;28;20391;-64
2022/11/26 11:15:35;;;;;;;10.63;9.27;;;;;;;-5.50;89.85;101187.06;5024415;28;20029;-64
2022/11/26 11:18:14;;;;;;;12.65;9.65;;;;;;;-5.38;88.15;101182.81;5044315;28;20178;-64
2022/11/26 11:20:43;;;;;;;11.85;8.85;;;;;;;-5.62;88.26;101188.75;5026653;28;20094;-63
2022/11/26 11:23:21;;;;;;;11.90;9.50;;;;;;;-5.52;89.22;101193.63;5027730;28;20030;-63
2022/11/26 11:25:58;;;;;;;12.52;8.63;;;;;;;-5.53;89.60;101184.31;5024387;28;20306;-63
2022/11/26 11:28:27;;;;;;;12.98;10.13;;;;;;;-5.45;88.37;101162.13;5024323;28;20061;-63
2022/11/26 11:31:17;;;;;;;12.57;9.65;;;;;;;-5.16;88.41;101188.44;5026204;28;20025;-64